Time;durP1;ratioP1;P1;durP2;ratioP2;P2;SDS_P1;SDS_P2;PMS_P1;PMS_P2;Temp;Humidity;BMP_temperature;BMP_pressure;BME280_temperature;BME280_humidity;BME280_pressure;Samples;Min_cycle;Max_cycle;Signal;HPM_P1;HPM_P2
2023/06/01 00:00:40;;;;;;;10.27;3.90;;;15.30;99.90;;;;;;5132469;27;20191;-64
2023/06/01 00:03:06;;;;;;;6.60;3.90;;;15.20;99.90;;;;;;5132527;27;20214;-65
2023/06/01 00:05:32;;;;;;;7.30;4.03;;;15.10;99.90;;;;;;5132433;27;20489;-65
2023/06/01 00:07:57;;;;;;;15.07;4.13;;;15.00;99.90;;;;;;5132430;27;20438;-64
2023/06/01 00:10:23;;;;;;;8.27;4.17;;;14.90;99.90;;;;;;5132459;27;20178;-65
2023/06/01 00:12:48;;;;;;;8.53;4.33;;;14.90;99.90;;;;;;5132206;27;20462;-66
2023/06/01 00:15:14;;;;;;;5.90;4.63;;;14.90;99.90;;;;;;5132134;27;20187;-65
2023/06/01 00:17:39;;;;;;;6.83;4.00;;;14.90;99.90;;;;;;5131970;27;20574;-65
2023/06/01 00:20:08;;;;;;;9.00;5.60;;;15.00;99.90;;;;;;5131754;27;20667;-64
2023/06/01 00:22:38;;;;;;;9.20;4.17;;;15.00;99.90;;;;;;5112744;27;20218;-65
2023/06/01 00:25:06;;;;;;;5.90;4.10;;;14.80;99.90;;;;;;5131505;27;20926;-65
2023/06/01 00:27:31;;;;;;;6.83;4.60;;;14.80;99.90;;;;;;5131018;27;20541;-65
2023/06/01 00:29:57;;;;;;;7.70;4.53;;;14.70;99.90;;;;;;5131622;27;20508;-65
2023/06/01 00:32:22;;;;;;;8.07;4.30;;;14.70;99.90;;;;;;5131053;27;20526;-65
2023/06/01 00:34:48;;;;;;;7.40;4.17;;;14.60;99.90;;;;;;5131177;27;20179;-65
2023/06/01 00:37:13;;;;;;;7.80;4.40;;;14.60;99.90;;;;;;5130370;27;21018;-65
2023/06/01 00:39:39;;;;;;;9.00;4.10;;;14.60;99.90;;;;;;5131373;27;20193;-65
2023/06/01 00:42:06;;;;;;;10.07;4.60;;;14.70;99.90;;;;;;5112494;27;20591;-65
2023/06/01 00:44:31;;;;;;;6.80;4.00;;;14.70;99.90;;;;;;5112243;27;20455;-65
2023/06/01 00:46:59;;;;;;;14.20;4.37;;;14.70;99.90;;;;;;5130786;27;20492;-65
2023/06/01 00:49:25;;;;;;;7.23;4.50;;;14.70;99.90;;;;;;5130958;27;20180;-65
2023/06/01 00:51:51;;;;;;;11.90;3.97;;;14.60;99.90;;;;;;5130701;27;20440;-65
2023/06/01 00:54:17;;;;;;;9.47;4.23;;;14.60;99.90;;;;;;5130752;27;20461;-65
2023/06/01 00:56:43;;;;;;;8.63;4.27;;;14.50;99.90;;;;;;5130538;27;20407;-65
2023/06/01 00:59:09;;;;;;;6.80;4.10;;;14.50;99.90;;;;;;5130536;27;20456;-65
2023/06/01 01:01:36;;;;;;;8.50;4.20;;;14.40;99.90;;;;;;5130450;27;20589;-65
2023/06/01 01:04:02;;;;;;;7.97;4.20;;;14.40;99.90;;;;;;5111865;27;20428;-65
2023/06/01 01:06:51;;;;;;;10.77;4.87;;;14.40;99.90;;;;;;5111712;27;20627;-65
2023/06/01 01:09:28;;;;;;;8.10;4.50;;;14.30;99.90;;;;;;5082081;27;20431;-65
2023/06/01 01:12:17;;;;;;;7.53;4.40;;;14.20;99.90;;;;;;5130263;27;20472;-65
2023/06/01 01:14:59;;;;;;;8.47;4.53;;;14.10;99.90;;;;;;5130274;27;20410;-65
2023/06/01 01:17:38;;;;;;;6.70;4.37;;;14.00;99.90;;;;;;5130227;27;20429;-65
2023/06/01 01:20:34;;;;;;;9.97;4.37;;;14.00;99.90;;;;;;5130316;27;20439;-65
2023/06/01 01:23:19;;;;;;;7.03;3.40;;;14.00;99.90;;;;;;5130266;27;20412;-66
2023/06/01 01:26:11;;;;;;;5.33;3.77;;;13.90;99.90;;;;;;5130186;27;20447;-64
2023/06/01 01:28:37;;;;;;;7.17;4.13;;;13.90;99.90;;;;;;5130493;27;20423;-64
2023/06/01 01:31:04;;;;;;;5.50;4.00;;;14.00;99.90;;;;;;5130460;27;20414;-65
2023/06/01 01:33:32;;;;;;;10.53;4.47;;;13.80;99.90;;;;;;5130866;27;20177;-65
2023/06/01 01:36:00;;;;;;;9.57;4.60;;;13.70;99.90;;;;;;5130622;27;20445;-65
2023/06/01 01:38:26;;;;;;;6.63;4.20;;;13.60;99.90;;;;;;5130459;27;20509;-64
2023/06/01 01:40:52;;;;;;;6.40;4.20;;;13.50;99.90;;;;;;5130514;27;21112;-64
2023/06/01 01:43:19;;;;;;;8.93;4.27;;;13.50;99.90;;;;;;5130525;27;20193;-65
2023/06/01 01:45:53;;;;;;;7.97;4.83;;;13.50;99.90;;;;;;5130410;27;20789;-65
2023/06/01 01:48:47;;;;;;;5.13;4.17;;;13.50;99.90;;;;;;5129652;27;20524;-63
2023/06/01 01:51:50;;;;;;;11.37;5.10;;;13.50;99.90;;;;;;5130460;27;20497;-66
2023/06/01 01:54:19;;;;;;;9.10;4.57;;;13.40;99.90;;;;;;5130379;27;20434;-65
2023/06/01 01:56:46;;;;;;;9.00;4.73;;;13.40;99.90;;;;;;5130090;27;20418;-64
2023/06/01 01:59:12;;;;;;;7.10;4.10;;;13.30;99.90;;;;;;5129822;27;20443;-65
2023/06/01 02:01:41;;;;;;;7.87;4.60;;;13.20;99.90;;;;;;5111134;27;20963;-65
2023/06/01 02:04:07;;;;;;;6.17;4.27;;;13.30;99.90;;;;;;5129669;27;20438;-64
2023/06/01 02:06:33;;;;;;;6.77;4.20;;;13.10;99.90;;;;;;5129364;27;20501;-65
2023/06/01 02:08:59;;;;;;;9.40;5.37;;;13.10;99.90;;;;;;5129634;27;20930;-65
2023/06/01 02:11:26;;;;;;;7.80;4.30;;;13.10;99.90;;;;;;5129502;28;20411;-65
2023/06/01 02:13:51;;;;;;;7.50;4.60;;;12.90;99.90;;;;;;5129475;28;20425;-65
2023/06/01 02:16:17;;;;;;;7.03;5.00;;;12.70;99.90;;;;;;5129558;27;21238;-66
2023/06/01 02:18:45;;;;;;;10.10;5.20;;;12.50;99.90;;;;;;5111189;28;20205;-65
2023/06/01 02:21:13;;;;;;;8.33;4.73;;;12.50;99.90;;;;;;5129494;27;20310;-65
2023/06/01 02:23:42;;;;;;;8.60;5.30;;;12.40;99.90;;;;;;5129261;27;20790;-64
2023/06/01 02:26:11;;;;;;;5.83;4.23;;;12.60;99.90;;;;;;5111278;28;20466;-65
2023/06/01 02:28:46;;;;;;;11.27;4.97;;;12.70;99.90;;;;;;5129192;27;20438;-65
2023/06/01 02:31:14;;;;;;;8.17;4.30;;;12.70;99.90;;;;;;5129430;28;20398;-65
2023/06/01 02:33:39;;;;;;;6.97;4.53;;;12.70;99.90;;;;;;5129509;28;20414;-65
2023/06/01 02:36:06;;;;;;;11.50;4.40;;;12.80;99.90;;;;;;5129207;27;20762;-65
2023/06/01 02:38:31;;;;;;;9.83;3.90;;;12.80;99.90;;;;;;5129259;27;20199;-65
2023/06/01 02:40:57;;;;;;;6.10;4.40;;;12.80;99.90;;;;;;5129005;28;20918;-64
2023/06/01 02:43:22;;;;;;;8.20;4.97;;;12.70;99.90;;;;;;5129056;27;20185;-64
2023/06/01 02:45:48;;;;;;;10.27;4.57;;;12.60;99.90;;;;;;5128981;28;20212;-65
2023/06/01 02:48:14;;;;;;;8.60;5.03;;;12.70;99.90;;;;;;5129079;27;20456;-64
2023/06/01 02:50:40;;;;;;;12.37;5.30;;;12.70;99.90;;;;;;5129074;27;20173;-64
2023/06/01 02:53:06;;;;;;;10.10;5.27;;;12.70;99.90;;;;;;5129002;28;20467;-64
2023/06/01 02:55:31;;;;;;;7.83;4.17;;;12.70;99.90;;;;;;5110308;28;20683;-64
2023/06/01 02:57:57;;;;;;;11.53;5.73;;;12.70;99.90;;;;;;5128889;27;20295;-65
2023/06/01 03:00:23;;;;;;;7.37;4.40;;;12.40;99.90;;;;;;5113417;27;20490;-64
2023/06/01 03:02:49;;;;;;;7.13;4.33;;;12.50;99.90;;;;;;5114372;27;20300;-65
2023/06/01 03:05:16;;;;;;;10.43;5.07;;;12.40;99.90;;;;;;5132933;27;20193;-65
2023/06/01 03:07:44;;;;;;;7.97;4.50;;;12.40;99.90;;;;;;5132691;27;20469;-65
2023/06/01 03:10:10;;;;;;;11.20;5.27;;;12.50;99.90;;;;;;5132706;27;20479;-64
2023/06/01 03:12:36;;;;;;;5.80;4.63;;;12.50;99.90;;;;;;5132692;27;20417;-66
2023/06/01 03:15:02;;;;;;;8.30;4.67;;;12.40;99.90;;;;;;5132870;27;20414;-65
2023/06/01 03:17:28;;;;;;;8.17;4.60;;;12.40;99.90;;;;;;5132554;27;20526;-65
2023/06/01 03:19:54;;;;;;;7.37;4.47;;;12.50;99.90;;;;;;5132453;27;20866;-64
2023/06/01 03:22:19;;;;;;;6.30;3.97;;;12.40;99.90;;;;;;5132354;27;20226;-64
2023/06/01 03:24:49;;;;;;;7.10;4.60;;;12.50;99.90;;;;;;5132344;27;20703;-66
2023/06/01 03:27:15;;;;;;;12.40;4.37;;;12.60;99.90;;;;;;5132171;27;20304;-65
2023/06/01 03:29:41;;;;;;;8.10;4.77;;;12.50;99.90;;;;;;5132251;27;20494;-65
2023/06/01 03:32:07;;;;;;;5.53;4.87;;;12.50;99.90;;;;;;5132327;27;20414;-65
2023/06/01 03:34:36;;;;;;;7.73;4.90;;;12.40;99.90;;;;;;5132297;27;20649;-65
2023/06/01 03:37:03;;;;;;;17.30;5.57;;;12.40;99.90;;;;;;5132096;27;20892;-64
2023/06/01 03:39:31;;;;;;;8.60;4.97;;;12.40;99.90;;;;;;5132031;27;20423;-65
2023/06/01 03:41:57;;;;;;;9.90;5.50;;;12.40;99.90;;;;;;5131839;27;20450;-64
2023/06/01 03:44:22;;;;;;;6.90;4.80;;;12.40;99.90;;;;;;5132044;27;20422;-66
2023/06/01 03:46:48;;;;;;;9.53;5.10;;;12.40;99.90;;;;;;5131916;27;20220;-65
2023/06/01 03:49:14;;;;;;;12.80;4.90;;;12.40;99.90;;;;;;5113500;27;20292;-65
2023/06/01 03:51:39;;;;;;;7.30;4.23;;;12.30;99.90;;;;;;5132077;27;20192;-64
2023/06/01 03:54:05;;;;;;;6.10;4.80;;;12.40;99.90;;;;;;5131956;27;20188;-65
2023/06/01 03:56:30;;;;;;;13.20;5.47;;;12.40;99.90;;;;;;5132069;27;20620;-65
2023/06/01 03:58:56;;;;;;;6.40;4.53;;;12.40;99.90;;;;;;5113098;27;20208;-65
2023/06/01 04:01:22;;;;;;;10.27;5.13;;;12.40;99.90;;;;;;5131755;27;20877;-65
2023/06/01 04:03:48;;;;;;;8.50;5.40;;;12.50;99.90;;;;;;5131768;27;20185;-64
2023/06/01 04:06:17;;;;;;;6.80;4.53;;;12.50;99.90;;;;;;5131839;27;20470;-65
2023/06/01 04:08:48;;;;;;;5.43;4.50;;;12.50;99.90;;;;;;5132120;27;20466;-64
2023/06/01 04:11:17;;;;;;;11.33;5.23;;;12.60;99.90;;;;;;5131204;27;20517;-65
2023/06/01 04:13:43;;;;;;;7.77;5.60;;;12.60;99.90;;;;;;5132222;27;20429;-64
2023/06/01 04:16:10;;;;;;;15.63;5.20;;;12.60;99.90;;;;;;5132284;27;20415;-64
2023/06/01 04:18:36;;;;;;;8.87;5.30;;;12.70;99.90;;;;;;5132147;27;20434;-64
2023/06/01 04:21:02;;;;;;;8.27;5.80;;;12.70;99.90;;;;;;5132089;27;20427;-64
2023/06/01 04:23:27;;;;;;;8.83;5.80;;;12.80;99.90;;;;;;5132059;27;20267;-64
2023/06/01 04:25:58;;;;;;;11.90;6.33;;;12.90;99.90;;;;;;5131713;27;20537;-64
2023/06/01 04:28:24;;;;;;;7.60;5.10;;;13.00;99.90;;;;;;5131724;27;20189;-64
2023/06/01 04:30:51;;;;;;;8.43;5.43;;;12.90;99.90;;;;;;5131608;27;20471;-65
2023/06/01 04:33:17;;;;;;;5.80;5.03;;;13.00;99.90;;;;;;5131260;27;20509;-66
2023/06/01 04:35:43;;;;;;;9.30;5.27;;;13.00;99.90;;;;;;5131454;27;20973;-64
2023/06/01 04:38:09;;;;;;;9.80;5.10;;;13.20;99.90;;;;;;5131460;27;20487;-64
2023/06/01 04:40:35;;;;;;;13.90;5.63;;;13.30;99.90;;;;;;5131043;27;20406;-65
2023/06/01 04:43:02;;;;;;;11.80;6.13;;;13.30;99.90;;;;;;5112297;27;20989;-64
2023/06/01 04:45:30;;;;;;;12.60;4.60;;;13.30;99.90;;;;;;5131036;27;21222;-64
2023/06/01 04:47:57;;;;;;;9.70;5.77;;;13.40;99.90;;;;;;5130922;27;20535;-64
2023/06/01 04:50:23;;;;;;;8.60;4.97;;;13.40;99.90;;;;;;5131051;27;20421;-64
2023/06/01 04:52:49;;;;;;;7.33;4.83;;;13.50;99.90;;;;;;5130985;27;20411;-64
2023/06/01 04:55:16;;;;;;;7.80;5.07;;;13.70;99.90;;;;;;5112171;27;20189;-64
2023/06/01 04:57:45;;;;;;;6.93;4.77;;;13.80;99.90;;;;;;5130377;27;20521;-65
2023/06/01 05:00:13;;;;;;;13.77;4.80;;;13.90;99.90;;;;;;5111746;27;20419;-65
2023/06/01 05:02:43;;;;;;;6.90;5.00;;;13.90;99.90;;;;;;5130487;27;20422;-65
2023/06/01 05:05:09;;;;;;;6.60;4.90;;;14.00;99.90;;;;;;5130486;27;21171;-65
2023/06/01 05:07:36;;;;;;;9.20;5.13;;;14.10;99.90;;;;;;5130295;27;20495;-65
2023/06/01 05:10:06;;;;;;;11.43;5.30;;;14.20;99.90;;;;;;5130272;27;20945;-65
2023/06/01 05:12:32;;;;;;;9.83;5.50;;;14.30;99.90;;;;;;5130442;27;20431;-65
2023/06/01 05:14:59;;;;;;;7.00;5.03;;;14.40;99.90;;;;;;5130324;27;20459;-66
2023/06/01 05:17:24;;;;;;;7.93;5.33;;;14.50;99.90;;;;;;5130282;27;20473;-65
2023/06/01 05:19:50;;;;;;;21.27;5.47;;;14.70;99.90;;;;;;5130277;27;21234;-65
2023/06/01 05:22:15;;;;;;;8.50;5.07;;;14.70;99.90;;;;;;5129931;27;20380;-65
2023/06/01 05:24:41;;;;;;;13.00;5.03;;;15.00;99.90;;;;;;5130074;27;20183;-65
2023/06/01 05:27:06;;;;;;;6.73;5.10;;;15.30;99.90;;;;;;5129996;27;20289;-65
2023/06/01 05:29:32;;;;;;;11.73;6.67;;;15.30;99.90;;;;;;5111654;27;20305;-65
2023/06/01 05:31:57;;;;;;;6.77;4.30;;;15.40;99.90;;;;;;5111555;27;20589;-65
2023/06/01 05:34:23;;;;;;;10.90;5.87;;;15.50;99.90;;;;;;5130075;27;20204;-65
2023/06/01 05:36:49;;;;;;;10.23;5.43;;;15.70;99.90;;;;;;5111267;27;20186;-64
2023/06/01 05:39:15;;;;;;;8.67;5.33;;;15.80;99.90;;;;;;5129757;27;20636;-65
2023/06/01 05:41:41;;;;;;;9.77;5.00;;;15.90;99.90;;;;;;5111271;27;20195;-65
2023/06/01 05:44:07;;;;;;;7.50;4.87;;;16.20;99.90;;;;;;5130378;27;20207;-65
2023/06/01 05:46:33;;;;;;;8.60;4.90;;;16.30;99.90;;;;;;5129756;27;20516;-64
2023/06/01 05:48:58;;;;;;;10.53;5.47;;;16.30;99.90;;;;;;5129860;27;20801;-64
2023/06/01 05:51:24;;;;;;;16.40;6.40;;;16.30;99.90;;;;;;5129745;27;20841;-65
2023/06/01 05:53:49;;;;;;;11.33;5.90;;;16.30;99.90;;;;;;5111097;27;20183;-65
2023/06/01 05:56:16;;;;;;;8.97;5.40;;;16.50;99.90;;;;;;5129609;27;20180;-64
2023/06/01 05:58:42;;;;;;;10.10;5.53;;;16.60;99.90;;;;;;5129550;27;20203;-65
2023/06/01 06:01:09;;;;;;;9.83;5.80;;;16.70;99.90;;;;;;5129730;27;20420;-65
2023/06/01 06:03:35;;;;;;;9.17;5.10;;;16.80;99.90;;;;;;5129555;27;20944;-64
2023/06/01 06:06:00;;;;;;;10.30;5.60;;;16.90;99.90;;;;;;5129910;27;20466;-66
2023/06/01 06:08:27;;;;;;;12.20;5.30;;;17.00;99.90;;;;;;5110995;27;20296;-65
2023/06/01 06:10:52;;;;;;;11.57;5.30;;;17.10;99.90;;;;;;5129879;27;20279;-64
2023/06/01 06:13:18;;;;;;;10.33;5.40;;;17.10;99.90;;;;;;5111000;28;20952;-65
2023/06/01 06:15:44;;;;;;;13.33;5.23;;;17.20;99.90;;;;;;5111678;28;20522;-64
2023/06/01 06:18:10;;;;;;;8.50;5.47;;;17.40;99.90;;;;;;5129784;27;20437;-64
2023/06/01 06:20:35;;;;;;;9.47;5.93;;;17.60;99.90;;;;;;5129833;28;20184;-65
2023/06/01 06:23:01;;;;;;;10.70;5.17;;;17.60;99.90;;;;;;5111340;28;20187;-64
2023/06/01 06:25:27;;;;;;;9.47;6.50;;;17.80;99.90;;;;;;5129855;28;20213;-64
2023/06/01 06:27:52;;;;;;;16.77;5.27;;;17.70;99.90;;;;;;5129917;27;20710;-64
2023/06/01 06:30:18;;;;;;;11.27;6.00;;;17.80;99.90;;;;;;5130165;27;20218;-65
2023/06/01 06:32:44;;;;;;;13.70;6.00;;;17.90;99.90;;;;;;5130212;28;20181;-64
2023/06/01 06:35:12;;;;;;;7.50;4.87;;;18.20;99.90;;;;;;5132633;27;20179;-65
2023/06/01 06:37:41;;;;;;;7.93;5.33;;;18.40;99.90;;;;;;5133984;27;20200;-64
2023/06/01 06:40:08;;;;;;;11.53;5.33;;;18.50;99.90;;;;;;5134099;27;20426;-65
2023/06/01 06:42:34;;;;;;;10.00;6.07;;;18.60;99.90;;;;;;5134079;27;20440;-64
2023/06/01 06:44:59;;;;;;;14.03;6.57;;;18.50;99.90;;;;;;5134027;27;21227;-63
2023/06/01 06:47:25;;;;;;;12.40;5.60;;;18.60;99.90;;;;;;5133838;27;20786;-65
2023/06/01 06:49:51;;;;;;;12.73;5.60;;;18.50;99.90;;;;;;5133772;27;20419;-65
2023/06/01 06:52:17;;;;;;;15.03;4.90;;;18.50;99.90;;;;;;5133753;27;20731;-64
2023/06/01 06:54:43;;;;;;;10.10;5.07;;;18.50;99.90;;;;;;5133558;27;20451;-64
2023/06/01 06:57:09;;;;;;;24.80;5.97;;;18.60;99.90;;;;;;5133269;27;20189;-65
2023/06/01 06:59:35;;;;;;;13.23;5.60;;;18.70;99.90;;;;;;5133287;27;20192;-66
2023/06/01 07:02:00;;;;;;;9.23;5.80;;;18.80;99.90;;;;;;5114520;27;20480;-65
2023/06/01 07:04:27;;;;;;;9.27;6.00;;;18.80;99.90;;;;;;5132813;27;20607;-66
2023/06/01 07:06:53;;;;;;;12.33;5.50;;;18.80;99.90;;;;;;5132704;27;20599;-65
2023/06/01 07:09:19;;;;;;;7.57;5.27;;;18.80;99.90;;;;;;5132240;27;20449;-65
2023/06/01 07:11:45;;;;;;;8.63;5.90;;;18.90;99.90;;;;;;5131356;27;20268;-74
2023/06/01 07:14:11;;;;;;;9.37;4.63;;;19.00;99.90;;;;;;5131738;27;20187;-76
2023/06/01 07:16:36;;;;;;;10.40;5.70;;;19.00;99.90;;;;;;5131636;27;20410;-77
2023/06/01 07:19:02;;;;;;;19.63;5.60;;;18.90;98.20;;;;;;5131761;27;20946;-77
2023/06/01 07:21:28;;;;;;;8.40;5.63;;;19.00;98.70;;;;;;5131905;27;20223;-77
2023/06/01 07:23:54;;;;;;;7.37;5.27;;;19.10;98.50;;;;;;5113787;27;20897;-75
2023/06/01 07:26:20;;;;;;;10.47;5.10;;;19.30;98.80;;;;;;5113270;27;20254;-74
2023/06/01 07:28:46;;;;;;;10.63;5.43;;;19.40;98.90;;;;;;5113320;27;20197;-76
2023/06/01 07:31:11;;;;;;;5.53;4.60;;;19.50;99.10;;;;;;5095732;27;20473;-76
2023/06/01 07:33:37;;;;;;;8.73;5.37;;;19.50;98.20;;;;;;5112780;27;20721;-76
2023/06/01 07:36:03;;;;;;;9.30;5.43;;;19.60;97.90;;;;;;5131450;27;20200;-76
2023/06/01 07:38:30;;;;;;;6.63;4.70;;;19.50;97.90;;;;;;5131531;27;20724;-76
2023/06/01 07:40:55;;;;;;;6.53;5.00;;;19.50;97.40;;;;;;5112778;27;20456;-76
2023/06/01 07:43:21;;;;;;;11.53;5.23;;;19.50;97.50;;;;;;5131843;27;20435;-76
2023/06/01 07:45:46;;;;;;;7.40;5.37;;;19.60;98.10;;;;;;5130133;27;20247;-76
2023/06/01 07:48:12;;;;;;;8.63;5.27;;;19.60;97.30;;;;;;5113026;27;20289;-77
2023/06/01 07:50:38;;;;;;;7.73;4.87;;;19.70;96.70;;;;;;5132132;27;20641;-77
2023/06/01 07:53:03;;;;;;;10.93;5.97;;;19.80;94.50;;;;;;5113491;27;20216;-76
2023/06/01 07:55:29;;;;;;;11.03;5.77;;;19.80;94.30;;;;;;5131864;27;20651;-78
2023/06/01 07:57:55;;;;;;;11.90;5.50;;;19.90;94.10;;;;;;5132418;27;20635;-76
2023/06/01 08:00:22;;;;;;;9.53;5.27;;;20.10;94.70;;;;;;5131508;27;20197;-76
2023/06/01 08:02:47;;;;;;;7.23;5.20;;;20.20;95.30;;;;;;5113193;27;20236;-78
2023/06/01 08:05:17;;;;;;;10.60;5.70;;;20.30;94.70;;;;;;5131944;27;20419;-75
2023/06/01 08:07:45;;;;;;;10.87;5.90;;;20.30;95.30;;;;;;5113066;27;20248;-76
2023/06/01 08:10:11;;;;;;;11.23;6.10;;;20.40;95.60;;;;;;5131422;27;20462;-77
2023/06/01 08:12:36;;;;;;;17.47;5.90;;;20.50;94.20;;;;;;5113421;27;20417;-77
2023/06/01 08:15:03;;;;;;;7.03;4.60;;;20.60;94.20;;;;;;5078636;27;20204;-76
2023/06/01 08:17:29;;;;;;;11.53;5.40;;;20.60;95.30;;;;;;5112304;27;20208;-77
2023/06/01 08:19:56;;;;;;;5.53;4.70;;;20.80;93.70;;;;;;5130804;27;20487;-77
2023/06/01 08:22:27;;;;;;;7.27;5.33;;;20.90;95.00;;;;;;5131148;27;20946;-77
2023/06/01 08:24:52;;;;;;;6.40;4.73;;;20.90;94.50;;;;;;5131240;27;20963;-77
2023/06/01 08:27:23;;;;;;;8.40;5.00;;;21.00;94.40;;;;;;5131328;27;20462;-76
2023/06/01 08:29:49;;;;;;;12.00;5.73;;;21.20;94.80;;;;;;5131562;27;20181;-76
2023/06/01 08:32:16;;;;;;;10.37;4.93;;;21.40;93.30;;;;;;5112629;27;20427;-77
2023/06/01 08:34:44;;;;;;;12.13;4.87;;;21.50;92.30;;;;;;5113089;27;20419;-77
2023/06/01 08:37:09;;;;;;;8.17;5.07;;;21.70;92.90;;;;;;5112393;27;20427;-77
2023/06/01 08:39:35;;;;;;;11.13;5.20;;;21.80;92.40;;;;;;5130357;27;20774;-76
2023/06/01 08:42:08;;;;;;;12.17;4.97;;;21.90;91.30;;;;;;5129827;27;20205;-76
2023/06/01 08:44:39;;;;;;;11.37;4.60;;;22.00;92.00;;;;;;5129766;27;20975;-76
2023/06/01 08:47:05;;;;;;;8.17;5.27;;;22.30;91.40;;;;;;5110703;27;20489;-76
2023/06/01 08:49:33;;;;;;;9.10;5.37;;;22.50;91.50;;;;;;5129651;27;20465;-75
2023/06/01 08:52:12;;;;;;;12.83;4.60;;;22.60;91.00;;;;;;5111362;27;20873;-76
2023/06/01 08:54:38;;;;;;;7.27;5.13;;;22.70;91.10;;;;;;5130081;27;20502;-75
2023/06/01 08:57:09;;;;;;;5.77;4.50;;;22.90;90.60;;;;;;5129801;27;20940;-76
2023/06/01 08:59:36;;;;;;;15.50;6.00;;;23.20;90.80;;;;;;5130170;27;20424;-75
2023/06/01 09:02:02;;;;;;;11.10;5.00;;;23.30;89.00;;;;;;5130009;27;20419;-76
2023/06/01 09:04:30;;;;;;;9.40;5.20;;;23.60;90.60;;;;;;5111922;27;20440;-76
2023/06/01 09:06:56;;;;;;;11.07;5.30;;;23.80;89.10;;;;;;5130165;27;20470;-75
2023/06/01 09:09:22;;;;;;;7.13;5.07;;;23.90;88.20;;;;;;5130075;27;20421;-75
2023/06/01 09:11:47;;;;;;;9.40;5.30;;;24.10;86.50;;;;;;5130153;27;20424;-76
2023/06/01 09:14:31;;;;;;;9.07;5.40;;;24.30;85.20;;;;;;5111191;27;20574;-75
2023/06/01 09:16:57;;;;;;;8.43;5.93;;;24.40;84.70;;;;;;5111141;27;20711;-74
2023/06/01 09:19:22;;;;;;;12.87;5.63;;;24.50;84.50;;;;;;5129710;27;20462;-75
2023/06/01 09:21:57;;;;;;;12.53;4.90;;;24.70;83.00;;;;;;5129594;27;20189;-75
2023/06/01 09:24:23;;;;;;;6.73;4.90;;;24.90;83.90;;;;;;5129465;27;20654;-76
2023/06/01 09:26:49;;;;;;;9.97;5.00;;;25.10;82.70;;;;;;5129332;27;20472;-75
2023/06/01 09:29:16;;;;;;;9.10;4.40;;;25.50;83.00;;;;;;5129138;27;20211;-74
2023/06/01 09:31:47;;;;;;;10.43;5.50;;;25.70;82.70;;;;;;5129324;27;20471;-76
2023/06/01 09:34:20;;;;;;;8.60;5.57;;;25.80;81.70;;;;;;5129038;27;20412;-76
2023/06/01 09:36:50;;;;;;;11.33;5.30;;;26.10;77.90;;;;;;5109934;27;20425;-76
2023/06/01 09:39:19;;;;;;;9.90;5.33;;;26.40;78.20;;;;;;5110566;27;21300;-75
2023/06/01 09:41:54;;;;;;;10.70;5.07;;;26.50;77.30;;;;;;5128514;27;20442;-75
2023/06/01 09:44:34;;;;;;;12.80;5.93;;;26.60;77.30;;;;;;5128857;27;20513;-72
2023/06/01 09:47:10;;;;;;;7.53;4.37;;;26.90;75.80;;;;;;5128290;27;20477;-71
2023/06/01 09:49:44;;;;;;;10.43;6.10;;;27.00;78.30;;;;;;5109678;27;20426;-72
2023/06/01 09:52:14;;;;;;;9.40;5.00;;;27.10;75.70;;;;;;5128438;27;20799;-71
2023/06/01 09:54:54;;;;;;;6.20;4.70;;;27.30;76.30;;;;;;5110126;27;21025;-76
2023/06/01 09:57:25;;;;;;;11.73;5.20;;;27.10;74.40;;;;;;5128376;27;20441;-77
2023/06/01 09:59:50;;;;;;;15.53;5.67;;;26.90;74.70;;;;;;5110764;27;20799;-77
2023/06/01 10:02:18;;;;;;;6.13;4.90;;;26.80;75.30;;;;;;5110947;27;20431;-76
2023/06/01 10:04:49;;;;;;;8.60;5.30;;;26.50;73.50;;;;;;5110709;27;20214;-76
2023/06/01 10:07:16;;;;;;;8.20;5.13;;;26.60;73.70;;;;;;5109712;27;21010;-75
2023/06/01 10:09:45;;;;;;;11.83;5.40;;;26.60;73.60;;;;;;5131892;27;20442;-76
2023/06/01 10:12:11;;;;;;;7.33;4.93;;;26.70;74.50;;;;;;5112213;28;20406;-71
2023/06/01 10:14:38;;;;;;;9.97;5.30;;;26.70;72.20;;;;;;5131607;28;20874;-74
2023/06/01 10:17:05;;;;;;;6.90;4.37;;;26.60;72.10;;;;;;5095528;27;20185;-76
2023/06/01 10:19:31;;;;;;;10.57;4.80;;;26.70;69.80;;;;;;5131848;28;20418;-74
2023/06/01 10:21:59;;;;;;;9.97;5.07;;;26.80;69.60;;;;;;5132722;27;20422;-77
2023/06/01 10:24:26;;;;;;;7.57;5.00;;;26.80;69.50;;;;;;5129874;27;20230;-75
2023/06/01 10:27:34;;;;;;;6.60;5.03;;;26.60;67.30;;;;;;5130769;28;20518;-70
2023/06/01 10:29:59;;;;;;;9.73;5.73;;;26.80;69.40;;;;;;5134772;28;20417;-73
2023/06/01 10:32:37;;;;;;;6.23;4.20;;;26.80;71.10;;;;;;5134008;28;20478;-75
2023/06/01 10:35:06;;;;;;;10.47;5.50;;;26.90;68.10;;;;;;5115751;28;20192;-75
2023/06/01 10:37:32;;;;;;;7.20;4.47;;;27.00;69.00;;;;;;5115149;28;20442;-74
2023/06/01 10:40:16;;;;;;;12.67;4.97;;;27.00;68.00;;;;;;5132430;28;20930;-73
2023/06/01 10:42:42;;;;;;;8.03;5.47;;;27.00;69.00;;;;;;5132605;28;20755;-72
2023/06/01 10:45:38;;;;;;;7.83;5.30;;;27.00;66.80;;;;;;5133398;27;20496;-71
2023/06/01 10:48:13;;;;;;;6.53;5.30;;;27.20;66.70;;;;;;5131109;27;20473;-72
2023/06/01 10:50:41;;;;;;;10.07;5.67;;;27.20;65.00;;;;;;5109885;27;20443;-71
2023/06/01 10:53:30;;;;;;;11.93;4.73;;;27.00;64.00;;;;;;5128796;28;20848;-70
2023/06/01 10:56:27;;;;;;;7.53;4.77;;;27.00;65.10;;;;;;5110509;28;20480;-72
2023/06/01 10:59:07;;;;;;;7.47;4.80;;;27.10;65.70;;;;;;5132262;27;20426;-71
2023/06/01 11:01:38;;;;;;;9.90;5.40;;;27.20;68.80;;;;;;5131593;28;20428;-73
2023/06/01 11:04:05;;;;;;;20.40;4.93;;;27.20;66.90;;;;;;5112706;28;20898;-75
2023/06/01 11:06:34;;;;;;;9.70;5.30;;;27.30;66.20;;;;;;5130378;27;20954;-77
2023/06/01 11:09:08;;;;;;;12.60;4.80;;;27.20;66.10;;;;;;5129598;27;20461;-76
2023/06/01 11:11:52;;;;;;;6.40;4.77;;;27.40;64.00;;;;;;5130175;27;20441;-75
2023/06/01 11:14:21;;;;;;;11.00;5.80;;;27.50;64.70;;;;;;5129214;27;20414;-76
2023/06/01 11:16:47;;;;;;;11.20;4.87;;;27.60;64.70;;;;;;5111698;28;20946;-75
2023/06/01 11:19:20;;;;;;;7.23;5.20;;;27.80;65.10;;;;;;5109010;28;20458;-72
2023/06/01 11:21:46;;;;;;;10.10;4.40;;;27.70;66.20;;;;;;5113273;27;20488;-72
2023/06/01 11:24:14;;;;;;;8.43;5.37;;;27.70;65.10;;;;;;5132934;27;20454;-74
2023/06/01 11:26:42;;;;;;;6.03;4.70;;;27.80;64.40;;;;;;5131968;27;20465;-71
2023/06/01 11:29:19;;;;;;;12.13;5.20;;;27.80;63.90;;;;;;5112696;27;20500;-73
2023/06/01 11:32:05;;;;;;;10.17;5.27;;;27.70;62.50;;;;;;5132294;27;20414;-71
2023/06/01 11:34:34;;;;;;;11.93;5.00;;;27.70;64.70;;;;;;5134648;27;20456;-73
2023/06/01 11:37:01;;;;;;;9.53;5.00;;;27.80;62.70;;;;;;5114358;27;20422;-73
2023/06/01 11:39:30;;;;;;;9.57;5.80;;;27.80;63.70;;;;;;5131835;27;20423;-73
2023/06/01 11:42:13;;;;;;;7.63;4.90;;;27.90;62.70;;;;;;5131477;27;20434;-73
2023/06/01 11:44:40;;;;;;;8.80;5.60;;;28.00;62.20;;;;;;5131447;27;20419;-71
2023/06/01 11:47:07;;;;;;;9.43;5.23;;;28.00;64.30;;;;;;5131185;27;20463;-70
2023/06/01 11:49:50;;;;;;;9.37;4.93;;;27.90;69.50;;;;;;5114662;27;20425;-74
2023/06/01 11:52:16;;;;;;;5.67;5.07;;;28.00;70.20;;;;;;5132078;27;20423;-73
2023/06/01 11:54:42;;;;;;;6.50;5.10;;;28.00;70.20;;;;;;5132489;27;20794;-72
2023/06/01 11:57:08;;;;;;;9.73;5.40;;;28.00;70.10;;;;;;5113179;27;20442;-73
2023/06/01 11:59:42;;;;;;;11.03;4.70;;;28.00;69.80;;;;;;5131916;27;20177;-72
2023/06/01 12:02:27;;;;;;;9.03;4.60;;;28.00;65.00;;;;;;5133292;27;20415;-72
2023/06/01 12:04:57;;;;;;;7.87;4.70;;;28.10;61.60;;;;;;5131361;27;20422;-71
2023/06/01 12:07:24;;;;;;;10.77;4.77;;;28.10;59.20;;;;;;5132222;27;20463;-72
2023/06/01 12:09:53;;;;;;;6.07;4.33;;;28.00;59.30;;;;;;5131123;27;21138;-70
2023/06/01 12:12:23;;;;;;;5.17;4.60;;;28.10;60.10;;;;;;5130962;27;20491;-72
2023/06/01 12:14:49;;;;;;;8.43;5.20;;;28.10;59.80;;;;;;5113680;27;20419;-73
2023/06/01 12:17:14;;;;;;;6.70;5.00;;;28.20;63.30;;;;;;5131679;27;20481;-72
2023/06/01 12:19:50;;;;;;;8.47;4.90;;;28.20;64.00;;;;;;5131107;27;20517;-72
2023/06/01 12:22:17;;;;;;;7.10;4.90;;;28.10;61.00;;;;;;5131830;27;20202;-76
2023/06/01 12:24:44;;;;;;;5.83;4.60;;;28.30;60.70;;;;;;5134142;27;20934;-71
2023/06/01 12:27:19;;;;;;;5.33;4.40;;;28.40;60.80;;;;;;5111337;27;21388;-72
2023/06/01 12:29:46;;;;;;;12.73;4.63;;;28.40;57.60;;;;;;5132445;27;20810;-75
2023/06/01 12:32:15;;;;;;;8.00;4.60;;;28.40;56.10;;;;;;5132053;27;20919;-73
2023/06/01 12:34:47;;;;;;;6.27;4.43;;;28.20;56.80;;;;;;5131762;27;20421;-74
2023/06/01 12:37:20;;;;;;;7.87;4.73;;;28.30;56.40;;;;;;5096248;27;20475;-73
2023/06/01 12:39:59;;;;;;;6.90;4.97;;;28.30;57.80;;;;;;5113410;27;20952;-71
2023/06/01 12:42:39;;;;;;;17.67;4.50;;;28.10;57.90;;;;;;5133436;27;20499;-75
2023/06/01 12:45:07;;;;;;;5.10;3.90;;;28.10;57.40;;;;;;5112227;27;21013;-76
2023/06/01 12:47:39;;;;;;;7.00;4.93;;;28.00;57.20;;;;;;5111924;27;20478;-76
2023/06/01 12:50:09;;;;;;;6.10;4.30;;;28.00;57.30;;;;;;5130562;27;20415;-76